MEL weather

Melbourne International Airport
Melbourne, Victoria, Australia

Public forecast

Using degrees Celsius for public forecast. Weather courtesy of forecast.io.

METAR (pilot weather report)

Retrieved 2017/11/19 23:30 UTC (0 seconds ago):

YMML 192330Z 36015KT CAVOK 25/10 Q1023 NOSIG

TAF (pilot weather forecast)

Retrieved 2017/11/19 18:38 UTC (5 hours ago):

TAF YMML 191719Z 1918/2024 36010KT CAVOK FM192100 01015G25KT CAVOK FM200200 36012KT CAVOK FM200600 16017KT CAVOK BECMG 2010/2012 VRB05KT CAVOK FM201800 36010KT CAVOK